createdAt,value
2023-04-12T00:00:17.802Z,5.61
2023-04-12T00:02:45.200Z,5.63
2023-04-12T00:05:13.986Z,5.64
2023-04-12T00:07:42.886Z,5.64
2023-04-12T00:10:10.363Z,5.65
2023-04-12T00:12:37.612Z,5.64
2023-04-12T00:15:07.828Z,5.65
2023-04-12T00:17:35.690Z,5.65
2023-04-12T00:20:12.067Z,5.67
2023-04-12T00:22:41.489Z,5.67
2023-04-12T00:25:09.682Z,5.68
2023-04-12T00:27:37.188Z,5.67
2023-04-12T00:30:04.923Z,5.68
2023-04-12T00:32:32.297Z,5.70
2023-04-12T00:34:59.737Z,5.70
2023-04-12T00:37:27.190Z,5.72
2023-04-12T00:39:54.413Z,5.74
2023-04-12T00:42:21.669Z,5.75
2023-04-12T00:44:48.889Z,5.77
2023-04-12T00:47:17.307Z,5.76
2023-04-12T00:49:44.671Z,5.79
2023-04-12T00:52:14.621Z,5.79
2023-04-12T00:54:43.272Z,5.80
2023-04-12T00:57:11.770Z,5.81
2023-04-12T00:59:39.166Z,5.83
2023-04-12T01:02:07.430Z,5.83
2023-04-12T01:04:38.120Z,5.85
2023-04-12T01:07:45.103Z,5.86
2023-04-12T01:10:28.984Z,5.89
2023-04-12T01:13:12.393Z,5.91
2023-04-12T01:15:51.566Z,5.93
2023-04-12T01:18:29.171Z,5.94
2023-04-12T01:21:10.755Z,5.96
2023-04-12T01:23:58.484Z,5.97
2023-04-12T01:26:52.368Z,5.99
2023-04-12T01:29:22.394Z,6.00
2023-04-12T01:31:58.057Z,6.02
2023-04-12T01:34:28.429Z,6.03
2023-04-12T01:36:58.422Z,6.05
2023-04-12T01:39:26.342Z,6.07
2023-04-12T01:41:53.592Z,6.07
2023-04-12T01:44:20.823Z,6.07
2023-04-12T01:46:48.838Z,6.07
2023-04-12T01:49:17.951Z,6.09
2023-04-12T01:51:50.955Z,6.10
2023-04-12T01:54:23.313Z,6.11
2023-04-12T01:56:58.447Z,6.13
2023-04-12T01:59:30.512Z,6.14
2023-04-12T02:01:58.604Z,6.15
2023-04-12T02:04:27.899Z,6.18
2023-04-12T02:06:56.249Z,6.20
2023-04-12T02:09:24.144Z,6.22
2023-04-12T02:11:51.427Z,6.24
2023-04-12T02:14:19.173Z,6.27
2023-04-12T02:16:47.908Z,6.29
2023-04-12T02:19:15.276Z,6.30
2023-04-12T02:21:46.776Z,6.32
2023-04-12T02:24:14.889Z,6.32
2023-04-12T02:26:45.029Z,6.33
2023-04-12T02:29:13.960Z,6.35
2023-04-12T02:31:41.580Z,6.37
2023-04-12T02:34:13.471Z,6.37
2023-04-12T02:36:49.784Z,6.38
2023-04-12T02:39:22.316Z,6.38
2023-04-12T02:41:51.896Z,6.41
2023-04-12T02:44:19.151Z,6.41
2023-04-12T02:46:58.415Z,6.40
2023-04-12T02:49:26.158Z,6.41
2023-04-12T02:51:55.037Z,6.41
2023-04-12T02:54:27.676Z,6.42
2023-04-12T02:56:56.707Z,6.43
2023-04-12T02:59:45.165Z,6.42
2023-04-12T03:02:17.378Z,6.44
2023-04-12T03:04:46.956Z,6.44
2023-04-12T03:07:19.749Z,6.47
2023-04-12T03:09:50.893Z,6.47
2023-04-12T03:12:20.729Z,6.48
2023-04-12T03:15:01.313Z,6.48
2023-04-12T03:17:29.038Z,6.48
2023-04-12T03:20:10.974Z,6.50
2023-04-12T03:22:44.836Z,6.49
2023-04-12T03:25:13.043Z,6.51
2023-04-12T03:27:46.322Z,6.52
2023-04-12T03:30:16.732Z,6.54
2023-04-12T03:32:45.143Z,6.55
2023-04-12T03:35:12.459Z,6.56
2023-04-12T03:37:43.368Z,6.57
2023-04-12T03:40:12.562Z,6.57
2023-04-12T03:42:44.366Z,6.58
2023-04-12T03:45:14.275Z,6.59
2023-04-12T03:47:46.177Z,6.58
2023-04-12T03:50:15.046Z,6.60
2023-04-12T03:52:50.620Z,6.60
2023-04-12T03:55:18.783Z,6.61
2023-04-12T03:57:48.999Z,6.62
2023-04-12T04:00:18.174Z,6.63
2023-04-12T04:02:47.588Z,6.64
2023-04-12T04:05:17.183Z,6.66
2023-04-12T04:07:45.867Z,6.66
2023-04-12T04:10:15.399Z,6.69
2023-04-12T04:12:44.346Z,6.70
2023-04-12T04:15:15.213Z,6.72
2023-04-12T04:17:43.190Z,6.73
2023-04-12T04:20:13.614Z,6.73
2023-04-12T04:22:44.727Z,6.74
2023-04-12T04:25:14.353Z,6.76
2023-04-12T04:27:46.568Z,6.76
2023-04-12T04:30:15.470Z,6.76
2023-04-12T04:32:46.054Z,6.75
2023-04-12T04:35:15.702Z,6.73
2023-04-12T04:37:57.758Z,6.73
2023-04-12T04:40:28.842Z,6.71
2023-04-12T04:42:57.916Z,6.70
2023-04-12T04:45:27.088Z,6.68
2023-04-12T04:47:55.420Z,6.67
2023-04-12T04:50:24.629Z,6.65
2023-04-12T04:52:53.460Z,6.63
2023-04-12T04:55:22.574Z,6.63
2023-04-12T04:57:50.585Z,6.61
2023-04-12T05:00:19.453Z,6.59
2023-04-12T05:02:53.735Z,6.59
2023-04-12T05:05:27.763Z,6.57
2023-04-12T05:08:02.467Z,6.56
2023-04-12T05:10:31.620Z,6.55
2023-04-12T05:13:02.639Z,6.54
2023-04-12T05:15:31.951Z,6.54
2023-04-12T05:18:00.071Z,6.53
2023-04-12T05:20:27.457Z,6.54
2023-04-12T05:22:54.704Z,6.52
2023-04-12T05:25:22.477Z,6.53
2023-04-12T05:28:01.363Z,6.53
2023-04-12T05:30:31.787Z,6.52
2023-04-12T05:32:59.342Z,6.51
2023-04-12T05:35:27.453Z,6.52
2023-04-12T05:37:59.352Z,6.53
2023-04-12T05:40:26.574Z,6.53
2023-04-12T05:42:54.920Z,6.54
2023-04-12T05:45:22.913Z,6.53
2023-04-12T05:47:50.295Z,6.55
2023-04-12T05:50:17.579Z,6.55
2023-04-12T05:52:44.904Z,6.56
2023-04-12T05:55:12.789Z,6.57
2023-04-12T05:57:44.459Z,6.57
2023-04-12T06:00:17.025Z,6.57
2023-04-12T06:02:46.404Z,6.57
2023-04-12T06:05:16.983Z,6.59
2023-04-12T06:07:49.044Z,6.60
2023-04-12T06:10:18.018Z,6.62
2023-04-12T06:12:48.955Z,6.65
2023-04-12T06:15:16.310Z,6.66
2023-04-12T06:17:43.832Z,6.67
2023-04-12T06:20:12.273Z,6.71
2023-04-12T06:22:39.869Z,6.72
2023-04-12T06:25:08.463Z,6.73
2023-04-12T06:27:36.058Z,6.74
2023-04-12T06:30:03.614Z,6.75
2023-04-12T06:32:34.276Z,6.75
2023-04-12T06:35:01.900Z,6.77
2023-04-12T06:37:29.234Z,6.78
2023-04-12T06:39:56.448Z,6.77
2023-04-12T06:42:24.299Z,6.78
2023-04-12T06:44:51.530Z,6.77
2023-04-12T06:47:18.794Z,6.79
2023-04-12T06:49:45.976Z,6.78
2023-04-12T06:52:13.252Z,6.78
2023-04-12T06:54:40.522Z,6.78
2023-04-12T06:57:11.470Z,6.79
2023-04-12T06:59:38.901Z,6.81
2023-04-12T07:02:07.748Z,6.82
2023-04-12T07:04:35.134Z,6.82
2023-04-12T07:07:02.427Z,6.82
2023-04-12T07:09:33.132Z,6.81
2023-04-12T07:12:01.020Z,6.81
2023-04-12T07:14:28.659Z,6.84
2023-04-12T07:16:56.050Z,6.86
2023-04-12T07:19:23.374Z,6.89
2023-04-12T07:21:51.135Z,6.92
2023-04-12T07:24:18.399Z,6.93
2023-04-12T07:26:46.150Z,6.95
2023-04-12T07:29:13.406Z,6.96
2023-04-12T07:31:40.722Z,6.97
2023-04-12T07:34:08.243Z,6.96
2023-04-12T07:36:35.675Z,6.95
2023-04-12T07:39:02.858Z,6.95
2023-04-12T07:41:30.083Z,6.95
2023-04-12T07:43:57.272Z,6.95
2023-04-12T07:46:24.647Z,6.95
2023-04-12T07:48:51.922Z,6.95
2023-04-12T07:51:19.475Z,6.95
2023-04-12T07:53:48.534Z,6.96
2023-04-12T07:56:16.365Z,6.97
2023-04-12T07:58:43.686Z,6.98
2023-04-12T08:01:15.360Z,6.97
2023-04-12T08:03:42.962Z,6.96
2023-04-12T08:06:10.481Z,6.97
2023-04-12T08:08:37.792Z,6.98
2023-04-12T08:11:06.532Z,6.99
2023-04-12T08:13:34.421Z,6.99
2023-04-12T08:16:01.878Z,7.00
2023-04-12T08:18:29.464Z,7.01
2023-04-12T08:20:58.287Z,7.02
2023-04-12T08:23:26.778Z,7.05
2023-04-12T08:26:02.767Z,7.05
2023-04-12T08:28:31.111Z,7.07
2023-04-12T08:30:59.484Z,7.06
2023-04-12T08:33:27.177Z,7.07
2023-04-12T08:35:55.299Z,7.08
2023-04-12T08:38:30.502Z,7.10
2023-04-12T08:41:08.150Z,7.12
2023-04-12T08:43:38.293Z,7.16
2023-04-12T08:46:07.574Z,7.20
2023-04-12T08:48:36.268Z,7.22
2023-04-12T08:51:04.260Z,7.22
2023-04-12T08:53:31.795Z,7.24
2023-04-12T08:55:59.209Z,7.25
2023-04-12T08:58:26.496Z,7.26
2023-04-12T09:00:54.660Z,7.26
2023-04-12T09:03:22.136Z,7.27
2023-04-12T09:05:49.540Z,7.26
2023-04-12T09:08:17.613Z,7.29
2023-04-12T09:10:44.941Z,7.31
2023-04-12T09:13:12.389Z,7.35
2023-04-12T09:15:51.258Z,7.37
2023-04-12T09:18:18.732Z,7.38
2023-04-12T09:20:45.943Z,7.40
2023-04-12T09:23:22.077Z,7.42
2023-04-12T09:25:52.792Z,7.42
2023-04-12T09:28:27.070Z,7.47
2023-04-12T09:30:56.231Z,7.52
2023-04-12T09:33:33.875Z,7.59
2023-04-12T09:36:02.982Z,7.68
2023-04-12T09:38:31.594Z,7.73
2023-04-12T09:41:20.185Z,7.77
2023-04-12T09:43:48.751Z,7.78
2023-04-12T09:46:16.878Z,7.79
2023-04-12T09:48:55.220Z,7.79
2023-04-12T09:51:29.926Z,7.82
2023-04-12T09:54:02.405Z,7.87
2023-04-12T09:56:32.365Z,7.92
2023-04-12T09:59:04.722Z,7.99
2023-04-12T10:01:38.574Z,8.05
2023-04-12T10:04:08.751Z,8.06
2023-04-12T10:06:37.282Z,8.10
2023-04-12T10:09:05.503Z,8.18
2023-04-12T10:11:34.223Z,8.31
2023-04-12T10:14:06.120Z,8.44
2023-04-12T10:16:39.362Z,8.51
2023-04-12T10:19:07.504Z,8.59
2023-04-12T10:21:34.993Z,8.68
2023-04-12T10:24:02.420Z,8.82
2023-04-12T10:26:29.742Z,8.95
2023-04-12T10:29:22.867Z,9.07
2023-04-12T10:31:50.786Z,9.18
2023-04-12T10:34:18.735Z,9.27
2023-04-12T10:36:57.400Z,9.40
2023-04-12T10:39:43.781Z,9.56
2023-04-12T10:42:20.206Z,9.66
2023-04-12T10:44:47.773Z,9.76
2023-04-12T10:47:15.244Z,9.83
2023-04-12T10:50:21.561Z,9.87
2023-04-12T10:53:12.721Z,9.90
2023-04-12T10:55:41.196Z,9.95
2023-04-12T10:58:09.190Z,10.04
2023-04-12T11:00:58.436Z,10.22
2023-04-12T11:03:28.366Z,10.38
2023-04-12T11:06:16.157Z,10.58
2023-04-12T11:09:06.307Z,10.80
2023-04-12T11:11:35.015Z,10.92
2023-04-12T11:14:02.801Z,11.07
2023-04-12T11:16:30.051Z,11.20
2023-04-12T11:18:58.075Z,11.28
2023-04-12T11:21:25.647Z,11.35
2023-04-12T11:23:54.803Z,11.41
2023-04-12T11:26:22.661Z,11.41
2023-04-12T11:28:53.167Z,11.35
2023-04-12T11:31:21.596Z,11.24
2023-04-12T11:33:48.927Z,11.19
2023-04-12T11:36:17.676Z,11.21
2023-04-12T11:38:47.354Z,11.25
2023-04-12T11:41:14.782Z,11.42
2023-04-12T11:43:42.949Z,11.56
2023-04-12T11:46:10.679Z,11.76
2023-04-12T11:48:40.821Z,11.97
2023-04-12T11:51:31.638Z,12.07
2023-04-12T11:54:00.207Z,12.08
2023-04-12T11:56:29.762Z,12.03
2023-04-12T11:58:57.025Z,12.03
2023-04-12T12:01:24.463Z,12.01
2023-04-12T12:03:53.223Z,12.04
2023-04-12T12:06:21.731Z,12.01
2023-04-12T12:08:52.971Z,11.97
2023-04-12T12:11:21.931Z,11.94
2023-04-12T12:13:50.570Z,11.90
2023-04-12T12:16:18.887Z,11.94
2023-04-12T12:18:51.768Z,11.98
2023-04-12T12:21:20.895Z,11.98
2023-04-12T12:23:49.805Z,12.00
2023-04-12T12:26:22.600Z,11.97
2023-04-12T12:28:55.067Z,11.95
2023-04-12T12:31:24.870Z,12.01
2023-04-12T12:33:57.330Z,12.01
2023-04-12T12:36:32.317Z,11.99
2023-04-12T12:39:12.779Z,11.99
2023-04-12T12:41:40.725Z,11.99
2023-04-12T12:44:08.730Z,11.97
2023-04-12T12:49:06.536Z,11.87
2023-04-12T12:51:33.774Z,11.85
2023-04-12T12:54:01.373Z,11.78
2023-04-12T12:56:28.584Z,11.69
2023-04-12T12:58:56.040Z,11.63
2023-04-12T13:01:23.633Z,11.48
2023-04-12T13:03:51.364Z,11.34
2023-04-12T13:06:19.040Z,11.19
2023-04-12T13:08:46.752Z,11.12
2023-04-12T13:11:15.815Z,11.05
2023-04-12T13:13:44.270Z,11.00
2023-04-12T13:16:11.608Z,10.96
2023-04-12T13:18:38.932Z,10.92
2023-04-12T13:21:07.694Z,10.82
2023-04-12T13:23:35.073Z,10.81
2023-04-12T13:26:02.355Z,10.78
2023-04-12T13:28:29.509Z,10.76
2023-04-12T13:30:57.382Z,10.77
2023-04-12T13:33:24.785Z,10.76
2023-04-12T13:35:52.041Z,10.75
2023-04-12T13:38:19.378Z,10.72
2023-04-12T13:40:46.688Z,10.69
2023-04-12T13:43:14.017Z,10.71
2023-04-12T13:45:41.634Z,10.73
2023-04-12T13:48:09.628Z,10.80
2023-04-12T13:50:37.071Z,10.83
2023-04-12T13:53:04.825Z,10.83
2023-04-12T13:55:32.028Z,10.86
2023-04-12T13:57:59.236Z,10.86
2023-04-12T14:00:27.284Z,10.92
2023-04-12T14:02:54.753Z,11.08
2023-04-12T14:05:22.745Z,11.19
2023-04-12T14:07:53.642Z,11.30
2023-04-12T14:10:20.966Z,11.40
2023-04-12T14:12:48.185Z,11.39
2023-04-12T14:15:15.424Z,11.44
2023-04-12T14:17:42.710Z,11.48
2023-04-12T14:20:10.700Z,11.53
2023-04-12T14:22:38.189Z,11.56
2023-04-12T14:25:06.490Z,11.55
2023-04-12T14:27:35.385Z,11.53
2023-04-12T14:30:03.079Z,11.55
2023-04-12T14:32:30.498Z,11.60
2023-04-12T14:34:57.989Z,11.65
2023-04-12T14:37:25.553Z,11.69
2023-04-12T14:39:56.215Z,11.69
2023-04-12T14:42:23.552Z,11.60
2023-04-12T14:44:50.914Z,11.51
2023-04-12T14:47:18.459Z,11.42
2023-04-12T14:49:45.924Z,11.32
2023-04-12T14:52:13.251Z,11.22
2023-04-12T14:54:40.609Z,11.12
2023-04-12T14:57:07.905Z,11.09
2023-04-12T14:59:35.170Z,11.13
2023-04-12T15:02:02.698Z,11.12
2023-04-12T15:04:30.378Z,11.09
2023-04-12T15:06:57.893Z,11.03
2023-04-12T15:09:26.300Z,10.96
2023-04-12T15:12:01.492Z,10.93
2023-04-12T15:14:29.037Z,10.95
2023-04-12T15:16:57.266Z,10.92
2023-04-12T15:19:24.510Z,10.91
2023-04-12T15:21:52.360Z,10.85
2023-04-12T15:24:20.887Z,10.81
2023-04-12T15:26:50.252Z,10.76
2023-04-12T15:29:18.831Z,10.72
2023-04-12T15:31:46.155Z,10.67
2023-04-12T15:34:13.500Z,10.63
2023-04-12T15:36:43.112Z,10.62
2023-04-12T15:39:12.670Z,10.64
2023-04-12T15:41:41.804Z,10.68
2023-04-12T15:44:11.891Z,10.69
2023-04-12T15:46:42.696Z,10.73
2023-04-12T15:49:11.011Z,10.80
2023-04-12T15:51:39.029Z,10.85
2023-04-12T15:54:06.631Z,10.90
2023-04-12T15:56:35.205Z,10.97
2023-04-12T15:59:02.981Z,10.97
2023-04-12T16:01:30.618Z,10.99
2023-04-12T16:03:58.057Z,10.95
2023-04-12T16:06:25.628Z,10.83
2023-04-12T16:08:57.862Z,10.69
2023-04-12T16:11:25.323Z,10.56
2023-04-12T16:13:54.124Z,10.48
2023-04-12T16:16:23.733Z,10.38
2023-04-12T16:18:52.758Z,10.33
2023-04-12T16:21:21.555Z,10.32
2023-04-12T16:23:50.551Z,10.27
2023-04-12T16:26:21.984Z,10.24
2023-04-12T16:28:55.955Z,10.13
2023-04-12T16:31:25.710Z,10.02
2023-04-12T16:33:53.640Z,9.92
2023-04-12T16:36:23.437Z,9.85
2023-04-12T16:38:54.600Z,9.83
2023-04-12T16:41:21.873Z,9.81
2023-04-12T16:43:52.907Z,9.78
2023-04-12T16:46:23.630Z,9.75
2023-04-12T16:48:50.856Z,9.73
2023-04-12T16:51:18.280Z,9.72
2023-04-12T16:53:45.649Z,9.71
2023-04-12T16:56:12.882Z,9.72
2023-04-12T16:58:40.125Z,9.71
2023-04-12T17:01:07.991Z,9.75
2023-04-12T17:03:36.001Z,9.79
2023-04-12T17:06:04.451Z,9.82
2023-04-12T17:08:31.843Z,9.83
2023-04-12T17:10:59.250Z,9.84
2023-04-12T17:13:26.784Z,9.84
2023-04-12T17:15:54.116Z,9.85
2023-04-12T17:18:21.567Z,9.84
2023-04-12T17:20:49.041Z,9.84
2023-04-12T17:23:16.338Z,9.83
2023-04-12T17:25:43.866Z,9.82
2023-04-12T17:28:11.492Z,9.78
2023-04-12T17:30:38.867Z,9.75
2023-04-12T17:33:07.918Z,9.70
2023-04-12T17:35:35.564Z,9.67
2023-04-12T17:38:02.936Z,9.64
2023-04-12T17:40:30.378Z,9.60
2023-04-12T17:42:57.672Z,9.57
2023-04-12T17:45:25.404Z,9.54
2023-04-12T17:47:52.731Z,9.51
2023-04-12T17:50:20.200Z,9.46
2023-04-12T17:52:47.594Z,9.43
2023-04-12T17:55:15.840Z,9.39
2023-04-12T17:57:44.366Z,9.35
2023-04-12T18:00:12.253Z,9.31
2023-04-12T18:02:46.732Z,9.30
2023-04-12T18:05:14.336Z,9.29
2023-04-12T18:07:42.497Z,9.27
2023-04-12T18:10:13.027Z,9.24
2023-04-12T18:12:40.893Z,9.22
2023-04-12T18:15:08.897Z,9.20
2023-04-12T18:17:36.393Z,9.19
2023-04-12T18:20:08.785Z,9.16
2023-04-12T18:22:36.558Z,9.16
2023-04-12T18:25:04.418Z,9.13
2023-04-12T18:27:32.114Z,9.08
2023-04-12T18:30:01.351Z,9.04
2023-04-12T18:32:28.958Z,9.00
2023-04-12T18:34:56.304Z,8.94
2023-04-12T18:37:23.612Z,8.91
2023-04-12T18:39:53.190Z,8.90
2023-04-12T18:42:20.866Z,8.82
2023-04-12T18:44:48.138Z,8.78
2023-04-12T18:47:15.484Z,8.75
2023-04-12T18:49:43.343Z,8.72
2023-04-12T18:52:10.622Z,8.70
2023-04-12T18:54:37.860Z,8.67
2023-04-12T18:57:05.126Z,8.62
2023-04-12T18:59:32.659Z,8.58
2023-04-12T19:02:00.221Z,8.55
2023-04-12T19:04:27.984Z,8.50
2023-04-12T19:06:56.003Z,8.48
2023-04-12T19:09:23.301Z,8.45
2023-04-12T19:11:50.788Z,8.40
2023-04-12T19:14:17.980Z,8.37
2023-04-12T19:16:45.258Z,8.33
2023-04-12T19:19:12.670Z,8.28
2023-04-12T19:21:39.948Z,8.25
2023-04-12T19:24:07.716Z,8.22
2023-04-12T19:26:38.737Z,8.18
2023-04-12T19:29:06.097Z,8.11
2023-04-12T19:31:35.167Z,8.06
2023-04-12T19:34:02.786Z,8.01
2023-04-12T19:36:30.127Z,7.98
2023-04-12T19:38:58.028Z,7.92
2023-04-12T19:41:25.943Z,7.87
2023-04-12T19:43:54.570Z,7.79
2023-04-12T19:46:22.339Z,7.72
2023-04-12T19:48:49.770Z,7.67
2023-04-12T19:51:17.196Z,7.60
2023-04-12T19:53:46.261Z,7.54
2023-04-12T19:56:15.045Z,7.49
2023-04-12T19:58:42.920Z,7.42
2023-04-12T20:01:10.363Z,7.35
2023-04-12T20:03:38.882Z,7.31
2023-04-12T20:06:06.290Z,7.23
2023-04-12T20:08:33.653Z,7.17
2023-04-12T20:11:02.170Z,7.13
2023-04-12T20:13:30.828Z,7.08
2023-04-12T20:16:00.953Z,7.04
2023-04-12T20:18:29.614Z,7.00
2023-04-12T20:20:59.835Z,6.96
2023-04-12T20:23:27.691Z,6.93
2023-04-12T20:25:55.590Z,6.88
2023-04-12T20:28:24.067Z,6.84
2023-04-12T20:30:51.339Z,6.82
2023-04-12T20:33:19.938Z,6.80
2023-04-12T20:35:47.216Z,6.76
2023-04-12T20:38:15.116Z,6.71
2023-04-12T20:40:42.433Z,6.66
2023-04-12T20:43:10.500Z,6.64
2023-04-12T20:45:38.098Z,6.62
2023-04-12T20:48:05.784Z,6.56
2023-04-12T20:50:33.054Z,6.53
2023-04-12T20:53:00.310Z,6.49
2023-04-12T20:55:32.889Z,6.44
2023-04-12T20:58:01.047Z,6.41
2023-04-12T21:00:29.523Z,6.38
2023-04-12T21:02:58.441Z,6.36
2023-04-12T21:05:27.304Z,6.31
2023-04-12T21:07:55.297Z,6.27
2023-04-12T21:10:22.742Z,6.24
2023-04-12T21:12:50.148Z,6.20
2023-04-12T21:15:21.902Z,6.18
2023-04-12T21:17:50.847Z,6.15
2023-04-12T21:20:18.987Z,6.11
2023-04-12T21:22:47.815Z,6.09
2023-04-12T21:25:16.795Z,6.05
2023-04-12T21:27:46.144Z,6.00
2023-04-12T21:30:14.124Z,5.98
2023-04-12T21:32:42.789Z,5.96
2023-04-12T21:35:11.274Z,5.94
2023-04-12T21:37:39.407Z,5.90
2023-04-12T21:40:12.780Z,5.86
2023-04-12T21:42:41.280Z,5.84
2023-04-12T21:45:09.795Z,5.79
2023-04-12T21:47:40.743Z,5.74
2023-04-12T21:50:11.825Z,5.72
2023-04-12T21:52:40.422Z,5.69
2023-04-12T21:55:08.088Z,5.64
2023-04-12T21:57:36.159Z,5.60
2023-04-12T22:00:05.705Z,5.55
2023-04-12T22:02:39.239Z,5.50
2023-04-12T22:05:07.161Z,5.45
2023-04-12T22:07:34.506Z,5.40
2023-04-12T22:10:02.709Z,5.37
2023-04-12T22:12:30.054Z,5.34
2023-04-12T22:14:57.722Z,5.29
2023-04-12T22:17:25.624Z,5.22
2023-04-12T22:19:56.545Z,5.14
2023-04-12T22:22:25.042Z,5.12
2023-04-12T22:24:54.006Z,5.11
2023-04-12T22:27:21.399Z,5.08
2023-04-12T22:29:50.051Z,5.07
2023-04-12T22:32:17.358Z,5.06
2023-04-12T22:34:45.036Z,5.05
2023-04-12T22:37:13.739Z,5.04
2023-04-12T22:39:41.062Z,5.03
2023-04-12T22:42:08.452Z,5.02
2023-04-12T22:44:38.408Z,4.99
2023-04-12T22:47:09.008Z,4.96
2023-04-12T22:49:46.443Z,4.95
2023-04-12T22:52:13.685Z,4.92
2023-04-12T22:54:41.194Z,4.89
2023-04-12T22:57:08.628Z,4.85
2023-04-12T22:59:36.195Z,4.84
2023-04-12T23:02:03.548Z,4.82
2023-04-12T23:04:30.902Z,4.80
2023-04-12T23:06:58.070Z,4.79
2023-04-12T23:09:25.641Z,4.75
2023-04-12T23:11:53.315Z,4.72
2023-04-12T23:14:20.716Z,4.71
2023-04-12T23:16:51.609Z,4.69
2023-04-12T23:19:18.951Z,4.68
2023-04-12T23:21:46.184Z,4.68
2023-04-12T23:24:15.568Z,4.69
2023-04-12T23:26:45.219Z,4.69
2023-04-12T23:29:13.250Z,4.70
2023-04-12T23:31:41.520Z,4.71
2023-04-12T23:34:08.960Z,4.71
2023-04-12T23:36:36.284Z,4.72
2023-04-12T23:39:10.260Z,4.73
2023-04-12T23:41:38.347Z,4.74
2023-04-12T23:44:05.633Z,4.75
2023-04-12T23:46:32.932Z,4.75
2023-04-12T23:49:00.257Z,4.75
2023-04-12T23:51:27.978Z,4.75
2023-04-12T23:53:55.392Z,4.76
2023-04-12T23:56:22.623Z,4.76
2023-04-12T23:58:49.994Z,4.75
